createdAt,value
2023-04-03T00:04:28.790Z,60.62
2023-04-03T00:09:30.441Z,60.45
2023-04-03T00:14:32.201Z,60.63
2023-04-03T00:19:33.971Z,60.52
2023-04-03T00:24:35.851Z,60.49
2023-04-03T00:29:37.530Z,60.43
2023-04-03T00:34:39.187Z,60.63
2023-04-03T00:39:40.766Z,60.25
2023-04-03T00:44:42.311Z,59.82
2023-04-03T00:49:46.174Z,59.81
2023-04-03T00:54:49.884Z,59.15
2023-04-03T00:59:56.336Z,59.10
2023-04-03T01:04:58.074Z,59.28
2023-04-03T01:10:02.640Z,58.88
2023-04-03T01:15:24.035Z,59.25
2023-04-03T01:20:38.518Z,60.06
2023-04-03T01:26:01.420Z,59.95
2023-04-03T01:31:18.519Z,59.83
2023-04-03T01:36:29.451Z,60.18
2023-04-03T01:41:31.234Z,60.84
2023-04-03T01:46:43.494Z,60.86
2023-04-03T01:51:45.445Z,61.04
2023-04-03T01:56:47.039Z,61.06
2023-04-03T02:01:49.390Z,60.65
2023-04-03T02:06:51.166Z,61.00
2023-04-03T02:11:52.829Z,61.33
2023-04-03T02:16:54.924Z,61.44
2023-04-03T02:21:57.960Z,62.16
2023-04-03T02:26:59.801Z,62.10
2023-04-03T02:32:01.824Z,62.21
2023-04-03T02:37:04.847Z,62.03
2023-04-03T02:42:06.700Z,62.09
2023-04-03T02:47:09.121Z,62.11
2023-04-03T02:52:10.825Z,62.53
2023-04-03T02:57:13.610Z,62.94
2023-04-03T03:02:15.398Z,63.04
2023-04-03T03:07:17.164Z,63.89
2023-04-03T03:12:22.640Z,63.79
2023-04-03T03:17:25.501Z,63.98
2023-04-03T03:22:27.254Z,65.01
2023-04-03T03:27:29.082Z,64.98
2023-04-03T03:32:30.981Z,65.51
2023-04-03T03:37:32.785Z,65.97
2023-04-03T03:42:34.558Z,66.29
2023-04-03T03:47:37.641Z,66.21
2023-04-03T03:52:39.930Z,65.95
2023-04-03T03:57:41.725Z,66.52
2023-04-03T04:02:44.377Z,66.62
2023-04-03T04:07:50.120Z,67.11
2023-04-03T04:12:52.569Z,67.11
2023-04-03T04:17:58.194Z,67.84
2023-04-03T04:23:01.049Z,67.64
2023-04-03T04:28:04.182Z,68.46
2023-04-03T04:33:06.583Z,68.53
2023-04-03T04:38:09.819Z,68.84
2023-04-03T04:43:15.355Z,69.21
2023-04-03T04:48:18.883Z,69.39
2023-04-03T04:53:20.827Z,69.32
2023-04-03T04:58:22.902Z,69.90
2023-04-03T05:03:25.100Z,70.05
2023-04-03T05:08:27.246Z,70.76
2023-04-03T05:13:29.015Z,70.69
2023-04-03T05:18:31.685Z,70.47
2023-04-03T05:23:37.336Z,71.01
2023-04-03T05:28:39.802Z,71.22
2023-04-03T05:33:42.607Z,71.48
2023-04-03T05:38:49.868Z,71.86
2023-04-03T05:43:52.018Z,72.06
2023-04-03T05:48:56.069Z,72.17
2023-04-03T05:54:08.371Z,72.13
2023-04-03T05:59:11.377Z,71.79
2023-04-03T06:04:15.149Z,71.44
2023-04-03T06:09:17.885Z,70.93
2023-04-03T06:14:20.062Z,70.55
2023-04-03T06:19:21.923Z,70.47
2023-04-03T06:24:27.445Z,69.91
2023-04-03T06:29:29.274Z,69.80
2023-04-03T06:34:30.934Z,69.36
2023-04-03T06:39:32.542Z,68.52
2023-04-03T06:44:35.513Z,68.70
2023-04-03T06:49:38.098Z,68.06
2023-04-03T06:54:40.508Z,67.94
2023-04-03T06:59:42.331Z,67.48
2023-04-03T07:04:45.395Z,66.95
2023-04-03T07:09:49.063Z,66.14
2023-04-03T07:14:51.316Z,66.06
2023-04-03T07:19:52.935Z,64.30
2023-04-03T07:24:54.566Z,63.01
2023-04-03T07:29:57.134Z,62.43
2023-04-03T07:34:58.817Z,59.94
2023-04-03T07:40:02.514Z,59.78
2023-04-03T07:45:05.129Z,58.27
2023-04-03T07:50:07.510Z,56.42
2023-04-03T07:55:09.409Z,57.64
2023-04-03T08:00:13.214Z,55.29
2023-04-03T08:05:16.848Z,55.62
2023-04-03T08:10:18.604Z,54.58
2023-04-03T08:15:21.005Z,53.12
2023-04-03T08:20:23.042Z,53.16
2023-04-03T08:25:24.835Z,50.01
2023-04-03T08:30:27.187Z,50.50
2023-04-03T08:35:29.227Z,49.25
2023-04-03T08:40:30.887Z,48.39
2023-04-03T08:45:56.443Z,47.55
2023-04-03T08:51:03.887Z,45.06
2023-04-03T08:56:09.996Z,43.51
2023-04-03T09:01:25.951Z,41.15
2023-04-03T09:06:35.809Z,40.59
2023-04-03T09:11:43.218Z,38.20
2023-04-03T09:16:55.721Z,38.01
2023-04-03T09:22:12.680Z,36.14
2023-04-03T09:27:14.511Z,34.52
2023-04-03T09:32:26.176Z,34.67
2023-04-03T09:37:44.288Z,34.80
2023-04-03T09:42:51.979Z,33.85
2023-04-03T09:48:16.186Z,34.95
2023-04-03T09:53:40.120Z,33.72
2023-04-03T09:58:50.296Z,34.32
2023-04-03T10:04:07.418Z,34.94
2023-04-03T10:09:26.515Z,33.62
2023-04-03T10:14:29.699Z,33.21
2023-04-03T10:19:42.542Z,32.78
2023-04-03T10:24:47.272Z,32.95
2023-04-03T10:30:00.912Z,31.64
2023-04-03T10:35:21.711Z,31.03
2023-04-03T10:40:26.485Z,31.57
2023-04-03T10:45:31.943Z,30.07
2023-04-03T10:50:40.563Z,30.86
2023-04-03T10:55:54.641Z,30.80
2023-04-03T11:01:02.596Z,30.06
2023-04-03T11:06:10.664Z,29.92
2023-04-03T11:11:23.030Z,29.89
2023-04-03T11:16:28.355Z,29.53
2023-04-03T11:21:37.658Z,28.44
2023-04-03T11:26:43.357Z,28.71
2023-04-03T11:32:22.136Z,28.13
2023-04-03T11:37:23.762Z,27.54
2023-04-03T11:42:33.255Z,26.76
2023-04-03T11:48:04.829Z,26.15
2023-04-03T11:53:14.820Z,25.58
2023-04-03T11:58:36.093Z,26.12
2023-04-03T12:03:41.187Z,26.11
2023-04-03T12:08:42.917Z,25.81
2023-04-03T12:13:53.728Z,26.03
2023-04-03T12:19:03.748Z,26.14
2023-04-03T12:24:08.306Z,27.05
2023-04-03T12:29:44.834Z,25.27
2023-04-03T12:34:58.878Z,25.80
2023-04-03T12:40:32.609Z,25.45
2023-04-03T12:46:13.128Z,25.96
2023-04-03T12:51:18.200Z,24.93
2023-04-03T12:56:27.400Z,25.75
2023-04-03T13:01:29.025Z,24.69
2023-04-03T13:06:40.224Z,24.13
2023-04-03T13:11:44.553Z,23.94
2023-04-03T13:17:01.403Z,23.91
2023-04-03T13:22:25.096Z,24.57
2023-04-03T13:27:28.282Z,24.61
2023-04-03T13:32:31.700Z,23.71
2023-04-03T13:37:36.075Z,25.35
2023-04-03T13:42:42.262Z,25.62
2023-04-03T13:47:46.489Z,25.76
2023-04-03T13:53:11.968Z,26.39
2023-04-03T13:58:13.550Z,26.26
2023-04-03T14:03:23.691Z,26.94
2023-04-03T14:08:39.646Z,27.01
2023-04-03T14:13:45.409Z,27.49
2023-04-03T14:18:48.431Z,27.43
2023-04-03T14:23:50.747Z,27.78
2023-04-03T14:28:54.891Z,28.25
2023-04-03T14:33:56.724Z,28.41
2023-04-03T14:38:59.191Z,28.57
2023-04-03T14:44:01.116Z,28.69
2023-04-03T14:49:03.828Z,28.45
2023-04-03T14:54:12.588Z,28.97
2023-04-03T14:59:15.552Z,28.64
2023-04-03T15:04:20.588Z,29.18
2023-04-03T15:09:27.417Z,28.88
2023-04-03T15:14:36.593Z,29.57
2023-04-03T15:19:39.934Z,29.53
2023-04-03T15:24:42.094Z,29.54
2023-04-03T15:29:44.838Z,30.70
2023-04-03T15:34:46.505Z,30.53
2023-04-03T15:39:48.289Z,30.33
2023-04-03T15:44:50.039Z,32.19
2023-04-03T15:49:51.850Z,32.13
2023-04-03T15:54:53.495Z,32.89
2023-04-03T15:59:55.582Z,33.83
2023-04-03T16:04:57.745Z,31.48
2023-04-03T16:09:59.800Z,32.45
2023-04-03T16:15:01.546Z,34.25
2023-04-03T16:20:05.221Z,33.04
2023-04-03T16:25:09.062Z,32.38
2023-04-03T16:30:11.397Z,33.58
2023-04-03T16:35:13.177Z,36.99
2023-04-03T16:40:15.440Z,34.88
2023-04-03T16:45:17.320Z,34.47
2023-04-03T16:50:21.757Z,34.54
2023-04-03T16:55:23.574Z,34.98
2023-04-03T17:00:25.318Z,35.83
2023-04-03T17:05:35.096Z,35.70
2023-04-03T17:10:39.700Z,35.70
2023-04-03T17:15:42.042Z,36.02
2023-04-03T17:20:44.030Z,36.35
2023-04-03T17:25:47.239Z,37.04
2023-04-03T17:30:48.988Z,37.10
2023-04-03T17:35:50.848Z,37.00
2023-04-03T17:40:52.967Z,37.47
2023-04-03T17:46:03.728Z,37.84
2023-04-03T17:51:15.056Z,37.82
2023-04-03T17:56:24.954Z,37.64
2023-04-03T18:01:31.897Z,37.51
2023-04-03T18:06:40.187Z,37.22
2023-04-03T18:11:43.606Z,37.48
2023-04-03T18:16:46.952Z,37.58
2023-04-03T18:21:49.014Z,37.38
2023-04-03T18:26:55.715Z,37.31
2023-04-03T18:31:59.029Z,37.70
2023-04-03T18:37:05.885Z,37.79
2023-04-03T18:42:21.088Z,38.05
2023-04-03T18:47:27.847Z,38.57
2023-04-03T18:52:29.962Z,38.27
2023-04-03T18:57:31.725Z,38.46
2023-04-03T19:02:33.761Z,38.68
2023-04-03T19:07:35.577Z,38.70
2023-04-03T19:12:37.365Z,39.26
2023-04-03T19:17:39.409Z,38.92
2023-04-03T19:22:42.209Z,39.06
2023-04-03T19:27:43.991Z,39.28
2023-04-03T19:32:46.737Z,39.95
2023-04-03T19:37:50.930Z,39.54
2023-04-03T19:42:52.863Z,39.51
2023-04-03T19:47:54.735Z,39.86
2023-04-03T19:52:56.472Z,40.11
2023-04-03T19:57:59.704Z,40.09
2023-04-03T20:03:01.801Z,40.16
2023-04-03T20:08:03.825Z,40.15
2023-04-03T20:13:09.010Z,40.24
2023-04-03T20:18:17.960Z,40.36
2023-04-03T20:23:21.028Z,41.11
2023-04-03T20:28:23.198Z,40.97
2023-04-03T20:33:26.401Z,41.15
2023-04-03T20:38:28.146Z,41.96
2023-04-03T20:43:30.201Z,41.80
2023-04-03T20:48:32.382Z,41.97
2023-04-03T20:53:34.272Z,42.28
2023-04-03T20:58:39.040Z,44.06
2023-04-03T21:03:40.968Z,45.60
2023-04-03T21:09:20.271Z,46.63
2023-04-03T21:14:59.561Z,48.07
2023-04-03T21:20:01.372Z,49.66
2023-04-03T21:25:03.402Z,51.30
2023-04-03T21:30:06.510Z,52.96
2023-04-03T21:35:09.511Z,54.16
2023-04-03T21:40:11.625Z,54.32
2023-04-03T21:45:16.156Z,55.36
2023-04-03T21:50:19.309Z,55.95
2023-04-03T21:55:20.999Z,55.70
2023-04-03T22:00:22.974Z,55.55
2023-04-03T22:05:25.018Z,55.60
2023-04-03T22:10:26.801Z,55.62
2023-04-03T22:15:28.495Z,55.56
2023-04-03T22:20:30.110Z,54.38
2023-04-03T22:25:32.585Z,54.49
2023-04-03T22:30:34.249Z,53.17
2023-04-03T22:35:35.853Z,52.83
2023-04-03T22:40:38.045Z,52.49
2023-04-03T22:45:50.569Z,51.08
2023-04-03T22:50:52.326Z,50.69
2023-04-03T22:56:01.113Z,50.34
2023-04-03T23:01:09.455Z,50.04
2023-04-03T23:06:13.446Z,49.76
2023-04-03T23:11:15.082Z,49.71
2023-04-03T23:16:17.431Z,49.54
2023-04-03T23:21:19.143Z,49.64
2023-04-03T23:26:20.833Z,49.40
2023-04-03T23:31:23.428Z,49.75
2023-04-03T23:36:25.183Z,49.84
2023-04-03T23:41:26.905Z,50.11
2023-04-03T23:46:28.697Z,50.83
2023-04-03T23:51:30.429Z,51.23
2023-04-03T23:56:32.280Z,51.78
